Latest Coastal Weather Observations for Darwin

IDD60701

Issued at 9:45 am CST Tuesday 2 September 2014 (issued every 10 minutes, with the page automatically refreshed every 10 minutes)

About coastal observations | Map of coastal stations | Coastal observations for NT | Marine services | Other Formats
Station Details ID: 014015 Name: DARWIN AIRPORT Lat: -12.42 Lon: 130.89 Height: 30.4 m
Data from the previous 72 hours. | See also: Recent months at Darwin
Date/Time
CST
Temp

°C
Wind Pressure Rain
since 9am
mm
Weather Cloud Vis
km
Sea
Height
m
Swell
Dir
 
Speed
knots
Gust
knots
hPa Trend Height
m
Period
s
Dir
02/09:30am 26.8 ENE 7 10 1015.8 - 0.0 - - 10 - - - -
02/09:00am 26.2 NNE 3 6 1015.5 F 0.0 Smoke Partly cloudy 20 - - - -
02/08:30am 24.7 NNE 1 4 1015.6 - 0.0 - - 10 - - - -
02/08:00am 21.5 NE 2 3 1015.4 - 0.0 - - 10 - - - -
02/07:30am 19.0 N 2 5 1015.2 - 0.0 - - 10 - - - -
02/07:00am 17.7 NNE 3 4 1014.8 - 0.0 Shallow fog Partly cloudy 10 - - - -
02/06:30am 18.3 E 1 3 1014.7 - 0.0 Fog patches Partly cloudy 10 - - - -
02/06:26am 18.4 ENE 2 4 1014.7 - 0.0 Fog patches Partly cloudy 10 - - - -
02/06:00am 18.8 ENE 3 4 1014.4 F 0.0 Smoke Partly cloudy 25 - - - -
02/05:30am 19.2 ENE 4 6 1014.6 - 0.0 - - 10 - - - -
02/05:00am 20.1 E 5 5 1014.6 - 0.0 - - 10 - - - -
02/04:30am 19.4 E 5 6 1014.5 - 0.0 - - 10 - - - -
02/04:00am 19.4 E 4 5 1014.4 - 0.0 - - 10 - - - -
02/03:30am 19.0 ENE 3 5 1014.4 - 0.0 - - 10 - - - -
02/03:00am 19.9 E 3 6 1014.0 R 0.0 Smoke Partly cloudy 25 - - - -
02/02:30am 20.2 ENE 5 5 1014.5 - 0.0 - - 10 - - - -
02/02:00am 20.8 ENE 4 5 1014.6 - 0.0 - - 10 - - - -
02/01:30am 21.4 ENE 5 7 1014.7 - 0.0 - - 10 - - - -
02/01:00am 22.0 NE 7 9 1014.9 - 0.0 - - 10 - - - -
02/12:30am 22.8 SSE 7 11 1014.7 - 0.0 - - 10 - - - -
02/12:00am 23.1 S 9 11 1013.9 S 0.0 Smoke Partly cloudy 25 - - - -
 
Date/Time
CST
Temp

°C
Wind Pressure Rain
since 9am
mm
Weather Cloud Vis
km
Sea
Height
m
Swell
Dir
 
Speed
knots
Gust
knots
hPa Trend Height
m
Period
s
Dir
01/11:30pm 23.4 SSW 8 10 1014.2 - 0.0 - - 10 - - - -
01/11:00pm 23.5 SSW 9 11 1014.1 - 0.0 - - 10 - - - -
01/10:30pm 23.7 SSW 9 12 1014.1 - 0.0 - - 10 - - - -
01/10:00pm 24.0 SSW 8 10 1014.0 - 0.0 - - 10 - - - -
01/09:30pm 24.3 SSW 7 9 1013.8 - 0.0 - - 10 - - - -
01/09:00pm 24.4 SW 8 10 1013.1 R 0.0 Smoke Partly cloudy 25 - - - -
01/08:30pm 25.3 SW 7 9 1013.1 - 0.0 - - 10 - - - -
01/08:00pm 25.6 WSW 7 8 1012.8 - 0.0 - - 10 - - - -
01/07:30pm 26.0 WSW 6 8 1012.4 - 0.0 - - 10 - - - -
01/07:00pm 25.9 W 7 8 1012.0 - 0.0 - - 10 - - - -
01/06:30pm 26.7 WNW 9 10 1011.7 - 0.0 - - 10 - - - -
01/06:00pm 27.1 W 9 11 1011.2 R 0.0 Haze Partly cloudy 25 - - - -
01/05:30pm 28.3 NW 9 12 1011.2 - 0.0 - - 10 - - - -
01/05:00pm 28.8 WNW 12 16 1011.0 - 0.0 - - 10 - - - -
01/04:30pm 29.7 NNW 11 14 1010.8 - 0.0 - - 10 - - - -
01/04:00pm 30.6 NNW 10 14 1010.9 - 0.0 - - 10 - - - -
01/03:30pm 30.4 NNW 10 12 1011.0 - 0.0 - - 10 - - - -
01/03:00pm 29.7 NNW 11 14 1011.1 F 0.0 Smoke Partly cloudy 20 - - - -
01/02:30pm 29.2 N 14 16 1011.7 - 0.0 - Mostly clear 10 - - - -
01/02:00pm 29.7 NW 11 14 1012.2 - 0.0 - Mostly clear 10 - - - -
01/01:30pm 29.5 WNW 9 13 1012.7 - 0.0 - Mostly clear 10 - - - -
01/01:00pm 29.1 WNW 9 12 1013.4 - 0.0 - Partly cloudy 10 - - - -
01/12:30pm 28.3 WNW 9 12 1013.8 - 0.0 - Partly cloudy 10 - - - -
01/12:00pm 28.8 NW 7 10 1013.9 F 0.0 Smoke Partly cloudy 10 - - - -
01/11:30am 28.4 N 6 9 1014.7 - 0.0 - Partly cloudy 8 - - - -
01/11:09am 28.2 N 6 9 1015.1 - 0.0 Smoke Mostly clear 5 - - - -
01/11:00am 27.8 N 5 7 1015.3 - 0.0 - Mostly clear 8 - - - -
01/10:30am 26.8 NNE 7 10 1015.6 - 0.0 - Mostly clear 9 - - - -
01/10:00am 26.9 NNE 6 9 1015.7 - 0.0 - Mostly clear 8 - - - -
01/09:30am 25.9 N 7 9 1015.6 - 0.0 - Mostly clear 8 - - - -
01/09:00am 25.4 ENE 5 6 1015.6 F 0.0 Smoke Mostly clear 7 - - - -
01/08:30am 24.4 E 3 5 1015.9 - 0.0 - - 10 - - - -
01/08:00am 22.1 CALM 0 2 1015.6 - 0.0 - - 10 - - - -
01/07:30am 19.6 ENE 3 4 1015.6 - 0.0 - - 10 - - - -
01/07:00am 18.9 E 4 6 1015.4 - 0.0 - - 10 - - - -
01/06:30am 18.9 ENE 5 6 1015.0 - 0.0 - Mostly clear 10 - - - -
01/06:00am 18.6 E 5 5 1014.3 R 0.0 Smoke Mostly clear 12 - - - -
01/05:30am 18.7 ENE 4 5 1014.4 - 0.0 - Mostly clear 8 - - - -
01/05:26am 18.8 ENE 4 5 1014.4 - 0.0 - Mostly clear 7 - - - -
01/05:00am 18.6 ENE 5 6 1014.3 - 0.0 Smoke Mostly clear 4 - - - -
01/04:30am 18.6 ENE 4 5 1013.8 - 0.0 Smoke Mostly clear 2 - - - -
01/04:00am 19.6 E 4 4 1013.5 - 0.0 Smoke Mostly clear 3 - - - -
01/03:30am 19.8 NNE 3 4 1013.3 - 0.0 Smoke Mostly clear 3 - - - -
01/03:00am 19.9 NE 3 4 1013.1 R 0.0 Smoke Mostly clear 5 - - - -
01/02:56am 19.8 NE 4 5 1013.4 - 0.0 - Mostly clear 6 - - - -
01/02:30am 20.3 ENE 4 5 1013.4 - 0.0 - Mostly clear 8 - - - -
01/02:00am 20.3 NE 3 5 1013.4 - 0.0 Smoke Mostly clear 5 - - - -
01/01:30am 20.4 NE 5 5 1013.7 - 0.0 Smoke Mostly clear 5 - - - -
01/01:00am 20.2 E 5 10 1013.6 - 0.0 - Mostly clear 7 - - - -
01/12:30am 21.3 E 5 6 1013.5 - 0.0 - - 10 - - - -
01/12:00am 22.5 WSW 6 8 1013.0 F 0.0 Smoke Mostly clear 25 - - - -
 
Date/Time
CST
Temp

°C
Wind Pressure Rain
since 9am
mm
Weather Cloud Vis
km
Sea
Height
m
Swell
Dir
 
Speed
knots
Gust
knots
hPa Trend Height
m
Period
s
Dir
31/11:30pm 23.3 SW 7 9 1013.0 - 0.0 - - 10 - - - -
31/11:00pm 23.3 SW 8 10 1012.9 - 0.0 - - 10 - - - -
31/10:30pm 23.5 SW 6 8 1012.9 - 0.0 - - 10 - - - -
31/10:00pm 23.7 SW 8 10 1012.9 - 0.0 - - 10 - - - -
31/09:30pm 24.0 SW 9 10 1013.0 - 0.0 - - 10 - - - -
31/09:00pm 24.4 WSW 7 9 1012.5 R 0.0 Smoke Mostly clear 25 - - - -
31/08:30pm 24.1 W 6 7 1012.4 - 0.0 - - 10 - - - -
31/08:00pm 24.8 W 7 8 1012.1 - 0.0 - - 10 - - - -
31/07:30pm 24.8 W 7 8 1011.7 - 0.0 - - 10 - - - -
31/07:00pm 24.8 W 6 7 1011.3 - 0.0 - - 10 - - - -
31/06:30pm 26.0 W 8 10 1011.0 - 0.0 - - 10 - - - -
31/06:00pm 27.5 NW 8 10 1010.4 R 0.0 Smoke Mostly clear 20 - - - -
31/05:30pm 28.0 NNW 9 11 1010.3 - 0.0 - - 10 - - - -
31/05:00pm 28.0 N 10 12 1010.3 - 0.0 - - 10 - - - -
31/04:30pm 29.3 NW 11 15 1010.2 - 0.0 - - 10 - - - -
31/04:00pm 29.8 NNW 12 15 1010.2 - 0.0 - - 10 - - - -
31/03:30pm 30.3 NNW 9 12 1010.4 - 0.0 - - 10 - - - -
31/03:00pm 29.2 N 12 14 1010.4 F 0.0 Haze Mostly clear 20 - - - -
31/02:30pm 29.8 NW 12 16 1010.9 - 0.0 - - 10 - - - -
31/02:00pm 30.0 NNW 12 16 1011.5 - 0.0 - Mostly clear 10 - - - -
31/01:30pm 29.5 NW 11 15 1011.8 - 0.0 - Mostly clear 10 - - - -
31/01:00pm 28.6 WNW 11 16 1012.5 - 0.0 - Mostly clear 10 - - - -
31/12:30pm 30.9 WNW 9 13 1013.0 - 0.0 - - 10 - - - -
31/12:00pm 30.8 E 10 16 1013.3 F 0.0 Haze Mostly clear 30 - - - -
31/11:30am 29.7 E 10 16 1014.1 - 0.0 - - 10 - - - -
31/11:00am 29.1 NE 7 10 1014.7 - 0.0 - - 10 - - - -
31/10:30am 28.1 NE 9 12 1015.1 - 0.0 - - 10 - - - -
31/10:00am 27.6 ENE 8 11 1015.3 - 0.0 - - 10 - - - -
31/09:30am 26.6 NE 8 10 1015.3 - 0.0 - - 10 - - - -
31/09:00am 25.3 NE 7 9 1015.1 R 0.0 Haze Clear 20 - - - -
31/08:30am 23.8 ENE 4 5 1015.0 - 0.0 - - 10 - - - -
31/08:00am 22.1 E 4 6 1014.7 - 0.0 - - 10 - - - -
31/07:30am 18.6 E 5 5 1014.5 - 0.0 - - 10 - - - -
31/07:00am 17.9 ENE 3 4 1014.0 - 0.0 Shallow fog Mostly clear 10 - - - -
31/06:44am 18.1 ENE 3 4 1013.9 - 0.0 Shallow fog - 10 - - - -
31/06:30am 18.3 ENE 3 4 1013.7 - 0.0 - - 10 - - - -
31/06:00am 18.0 CALM 0 3 1013.3 R 0.0 Smoke Clear 20 - - - -
31/05:30am 18.1 NNE 1 4 1013.3 - 0.0 - - 10 - - - -
31/05:00am 18.4 NE 4 5 1013.1 - 0.0 - - 10 - - - -
31/04:30am 18.8 NE 5 6 1013.1 - 0.0 - - 10 - - - -
31/04:00am 18.8 ENE 6 8 1013.2 - 0.0 - - 10 - - - -
31/03:30am 19.0 ENE 7 8 1013.3 - 0.0 - Mostly clear 10 - - - -
31/03:00am 18.7 NE 4 5 1012.8 F 0.0 Smoke Mostly clear 25 - - - -
31/02:30am 18.7 ENE 5 6 1013.3 - 0.0 - Mostly clear 10 - - - -
31/02:00am 18.6 ENE 5 5 1013.5 - 0.0 - Mostly clear 10 - - - -
31/01:30am 19.1 NE 3 4 1013.4 - 0.0 - - 10 - - - -
31/01:00am 19.4 NE 4 6 1013.6 - 0.0 - - 10 - - - -
31/12:30am 20.1 ENE 5 6 1013.7 - 0.0 - - 10 - - - -
31/12:00am 21.1 N 7 12 1013.6 F 0.0 Smoke Clear 25 - - - -
 
Date/Time
CST
Temp

°C
Wind Pressure Rain
since 9am
mm
Weather Cloud Vis
km
Sea
Height
m
Swell
Dir
 
Speed
knots
Gust
knots
hPa Trend Height
m
Period
s
Dir
30/11:30pm 21.9 SSE 5 6 1013.6 - 0.0 - - 10 - - - -
30/11:00pm 21.2 S 4 6 1013.4 - 0.0 - - 10 - - - -
30/10:30pm 22.9 SSW 7 10 1013.0 - 0.0 - - 10 - - - -
30/10:00pm 23.0 S 7 8 1013.2 - 0.0 - - 10 - - - -
30/09:30pm 23.2 SSW 7 8 1013.3 - 0.0 - - 10 - - - -
30/09:00pm 24.0 SW 6 7 1012.9 S 0.0 Smoke Clear 25 - - - -
30/08:30pm 23.1 WSW 6 7 1012.8 - 0.0 - - 10 - - - -
30/08:00pm 24.1 WSW 6 7 1012.4 - 0.0 - - 10 - - - -
30/07:30pm 24.2 W 5 6 1012.1 - 0.0 - - 10 - - - -
30/07:00pm 25.4 WNW 6 7 1012.0 - 0.0 - - 10 - - - -
30/06:25pm 26.7 NNW 7 8 1011.6 - 0.0 - - 6 - - - -
30/06:00pm 27.5 NNW 8 10 1011.1 R 0.0 Smoke Clear 20 - - - -
30/05:30pm 28.0 NNW 10 12 1011.1 - 0.0 - - 10 - - - -
30/05:00pm 28.4 N 10 13 1010.9 - 0.0 - - 10 - - - -
30/04:30pm 29.0 N 13 15 1010.7 - 0.0 - - 10 - - - -
30/04:00pm 29.3 N 12 15 1010.7 - 0.0 - - 10 - - - -
30/03:30pm 29.5 NNW 12 16 1010.8 - 0.0 - - 10 - - - -
30/03:00pm 29.9 N 11 15 1011.0 F 0.0 Haze Clear 20 - - - -
30/02:30pm 30.1 NW 11 14 1011.6 - 0.0 - - 10 - - - -
30/02:00pm 28.7 NW 12 15 1012.1 - 0.0 - - 10 - - - -
30/01:30pm 29.2 WNW 12 15 1012.6 - 0.0 - - 10 - - - -
30/01:00pm 31.2 WNW 9 12 1013.1 - 0.0 - - 10 - - - -
30/12:30pm 30.7 W 5 8 1013.7 - 0.0 - - 10 - - - -
30/12:00pm 29.6 ESE 5 9 1014.3 F 0.0 Haze Mostly clear 20 - - - -
30/11:30am 29.3 E 7 11 1015.2 - 0.0 - - 10 - - - -
30/11:00am 28.6 NE 7 13 1015.7 - 0.0 - - 10 - - - -
30/10:30am 27.8 ESE 9 13 1016.1 - 0.0 - - 10 - - - -
30/10:00am 27.0 NE 7 10 1016.2 - 0.0 - - 10 - - - -

Other Formats:

Comma delimited format used in spreadsheet applications
http://www.bom.gov.au/fwo/IDD60701/IDD60701.94120.axf

JavaScript Object Notation format (JSON) in row-major order
http://www.bom.gov.au/fwo/IDD60701/IDD60701.94120.json